Airfield :
LOGIN :

Register | Disclaimer

   EN    FR    IT 

 










Legend :    VFR   Marginal VFR   IFR   Intensive IFR   Very Intensive IFR
Visi :
Ceiling :
>= 8 km
>= 3000ft
5 to 8 km
1000 to 3000 ft
1500m to 5 km
500 to 1000 ft
800 to 1500m
200 to 500 ft
< 800m
< 200 ft
Symbols :   Thunderstorms  Fog  Heavy snow  Heavy precipitations  Wind > 20 kt
SIGMETs :     Misc.  Thunderstorms  Icing  Turbulence  Mountain Waves  Volcanic Ashes







- Airport Elevation : 187 ft


ETNW - Wunstorf AB

CURRENT METAR :
  • 240720Z 16003KT 5000 BR BKN013 12/11 Q1021 GRN GRN TEMPO YLO

EXPIRED METARs :
  • 240642Z 19004KT 5000 BR BKN012 11/10 Q1021 GRN GRN TEMPO YLO
  • 240620Z 16004KT 4500 -DZ BR BKN014 BKN020 11/10 Q1021 GRN GRN TEMPO YLO
  • 240546Z 17005KT 4500 BR BKN012 BKN030 11/10 Q1021 GRN GRN TEMPO YLO
  • 240520Z 18004KT 8000 BKN010 BKN040 11/10 Q1021 GRN GRN TEMPO YLO

TAF TAF ETNW
Valid from the 24 at 05:00 until the 25 at 05:00 UTC


240420Z 2405/2505 22008KT 8000 NSW BKN009 BKN030 BKN200
TEMPO 2405/2508 18005KT 3500 BR BKN006 SCT030 BKN220
BECMG 2408/2410 21010KT 5000 -DZ BR SCT005 BKN012
TEMPO 2410/2505 23013KT 2500 DZRA BKN005 OVC008
PROB30 2410/2505 17005KT 1200 +DZRA BKN002 OVC006 BY ETGL
No reported NOTAMs for that airfield.



MET'MAP, your aeronautical weather chart ! - Copyright ORBIFLY December 2007 - Disclaimer

ORBIFLY MET'MAP TEAM :

Programming & Development : Alexandra Zaïnal
Concept & Development : Baudouin d'Aumeries
Co-Development & Prog : Marc-Olivier Méhu
Technical & hardware support : Manuel Goepfert

Contact : metmap@orbifly.com




SOURCES & CREDITS :

   NOAA